Pagrindinis puslapis
METAR-TAF:

METAR-TAF

Oro uostai :

Arvidsjaur, Švedija

platuma: 65-35-25N, ilguma: 019-16-55E, Aukštis: 379 m

Dabartinis oras

Ataskaita buvo paskelbta 21 minutes, ne 01:50 UTC
Vėjas 4 kt iš Rytų
Temperatūra 6°C
Drėgmė 81%
Slėgis 1014 hPa
Matomumas 10 km arba daugiau

METAR: ESNX 170150Z AUTO 09004KT 9999 NCD 06/03 Q1014

Laikas: 04:11 (02:11 UTC)

Prognozė

Ataskaita buvo paskelbta 10 valandos ir 41 minutes, ne 15:30 UTC
Prognozė galioja nuo 16 metu 16 UTC su 16 metu 18 UTC
Vėjas 10 kt iš Vakarų/Pietvakarių
Matomumas 10 km arba daugiau
nėra debesų žemiau 1500 m ir nėra kamuolinių lietaus debesų

TAF: ESNX 161530Z 1616/1618 25010KT CAVOK

Orai ataskaitas ir orų prognozės (METAR, TAF).

turimą stotys yra geltonos ir raudonos taškus žemėlapyje.

Perkelti pele per norėdami pamatyti stoties vardą.

Tada spustelėkite, norėdami matyti oro stebėjimo ir prognozės.

Norėdami pakeisti žemėlapį: spustelėkite ant žalios mygtukų su juodo kryžiaus žemyn,; žalią mygtuką su brūkšneliu, jei norite nutolinti; arba žalių rodyklių gretimoms žemėlapius.


METAR-TAF: